createdAt,value
2019-04-01T00:00:44.132Z,7.23
2019-04-01T00:01:44.115Z,7.32
2019-04-01T00:02:44.108Z,7.28
2019-04-01T00:03:44.101Z,7.20
2019-04-01T00:04:44.088Z,7.28
2019-04-01T00:05:44.079Z,7.25
2019-04-01T00:06:44.075Z,7.33
2019-04-01T00:07:44.063Z,7.28
2019-04-01T00:08:44.050Z,7.25
2019-04-01T00:09:44.041Z,7.28
2019-04-01T00:10:44.029Z,7.32
2019-04-01T00:11:44.029Z,7.28
2019-04-01T00:12:44.014Z,7.18
2019-04-01T00:13:44.007Z,7.14
2019-04-01T00:14:43.997Z,7.18
2019-04-01T00:15:43.989Z,7.15
2019-04-01T00:16:43.976Z,7.15
2019-04-01T00:17:43.967Z,7.13
2019-04-01T00:18:43.955Z,7.24
2019-04-01T00:19:43.949Z,7.18
2019-04-01T00:20:43.942Z,7.23
2019-04-01T00:21:44.633Z,7.15
2019-04-01T00:22:43.944Z,7.00
2019-04-01T00:23:43.910Z,7.18
2019-04-01T00:24:43.905Z,7.15
2019-04-01T00:25:43.893Z,7.17
2019-04-01T00:26:43.879Z,7.14
2019-04-01T00:27:43.870Z,7.17
2019-04-01T00:28:43.863Z,7.23
2019-04-01T00:29:43.851Z,7.13
2019-04-01T00:30:43.843Z,7.06
2019-04-01T00:31:43.836Z,6.97
2019-04-01T00:32:43.827Z,6.89
2019-04-01T00:33:43.813Z,6.84
2019-04-01T00:34:43.807Z,6.88
2019-04-01T00:35:43.795Z,6.81
2019-04-01T00:36:43.790Z,6.74
2019-04-01T00:37:43.777Z,6.66
2019-04-01T00:38:43.763Z,6.62
2019-04-01T00:39:43.758Z,6.52
2019-04-01T00:40:43.746Z,6.56
2019-04-01T00:41:43.735Z,6.60
2019-04-01T00:42:43.729Z,6.59
2019-04-01T00:43:43.714Z,6.52
2019-04-01T00:44:43.707Z,6.49
2019-04-01T00:45:43.702Z,6.52
2019-04-01T00:46:43.690Z,6.49
2019-04-01T00:47:43.683Z,6.51
2019-04-01T00:48:43.667Z,6.52
2019-04-01T00:49:43.657Z,6.54
2019-04-01T00:50:43.648Z,6.41
2019-04-01T00:51:43.636Z,6.45
2019-04-01T00:52:43.624Z,6.49
2019-04-01T00:53:43.613Z,6.48
2019-04-01T00:54:43.604Z,6.46
2019-04-01T00:55:43.605Z,6.46
2019-04-01T00:56:43.602Z,6.36
2019-04-01T00:57:43.574Z,6.45
2019-04-01T00:58:43.562Z,6.46
2019-04-01T00:59:43.554Z,6.33
2019-04-01T01:00:43.545Z,6.41
2019-04-01T01:01:43.532Z,6.35
2019-04-01T01:02:43.534Z,6.28
2019-04-01T01:03:43.517Z,6.28
2019-04-01T01:04:43.502Z,6.30
2019-04-01T01:05:43.500Z,6.27
2019-04-01T01:06:43.483Z,6.26
2019-04-01T01:07:43.472Z,6.28
2019-04-01T01:08:43.484Z,6.31
2019-04-01T01:09:43.454Z,6.24
2019-04-01T01:10:43.441Z,6.26
2019-04-01T01:11:43.429Z,6.28
2019-04-01T01:12:43.422Z,6.26
2019-04-01T01:13:43.411Z,6.27
2019-04-01T01:14:43.412Z,6.17
2019-04-01T01:15:43.390Z,6.30
2019-04-01T01:16:43.380Z,6.33
2019-04-01T01:17:43.373Z,6.26
2019-04-01T01:18:43.358Z,6.30
2019-04-01T01:19:43.350Z,6.22
2019-04-01T01:20:43.358Z,6.30
2019-04-01T01:21:43.327Z,6.19
2019-04-01T01:22:43.316Z,6.27
2019-04-01T01:23:43.306Z,6.20
2019-04-01T01:24:43.295Z,6.28
2019-04-01T01:25:43.284Z,6.30
2019-04-01T01:26:43.274Z,6.26
2019-04-01T01:27:43.267Z,6.30
2019-04-01T01:28:43.345Z,6.20
2019-04-01T01:29:43.243Z,6.30
2019-04-01T01:30:43.231Z,6.28
2019-04-01T01:31:43.222Z,6.30
2019-04-01T01:32:43.217Z,6.22
2019-04-01T01:33:43.204Z,6.28
2019-04-01T01:34:43.192Z,6.26
2019-04-01T01:35:43.181Z,6.26
2019-04-01T01:36:43.176Z,6.28
2019-04-01T01:37:43.161Z,6.22
2019-04-01T01:38:43.149Z,6.22
2019-04-01T01:39:43.139Z,6.17
2019-04-01T01:40:43.195Z,6.28
2019-04-01T01:41:43.133Z,6.28
2019-04-01T01:42:43.110Z,6.31
2019-04-01T01:43:43.103Z,6.28
2019-04-01T01:44:43.088Z,6.22
2019-04-01T01:45:43.077Z,6.27
2019-04-01T01:46:43.067Z,6.17
2019-04-01T01:47:43.055Z,6.22
2019-04-01T01:48:43.063Z,6.26
2019-04-01T01:49:43.045Z,6.22
2019-04-01T01:50:43.025Z,6.30
2019-04-01T01:51:43.020Z,6.26
2019-04-01T01:52:43.004Z,6.24
2019-04-01T01:53:42.992Z,6.16
2019-04-01T01:54:42.983Z,6.26
2019-04-01T01:55:42.980Z,6.27
2019-04-01T01:56:42.962Z,6.17
2019-04-01T01:57:42.953Z,6.22
2019-04-01T01:58:42.945Z,6.16
2019-04-01T01:59:42.934Z,6.20
2019-04-01T02:00:42.919Z,6.22
2019-04-01T02:01:42.911Z,6.19
2019-04-01T02:02:42.900Z,6.12
2019-04-01T02:03:42.888Z,6.08
2019-04-01T02:04:42.878Z,5.99
2019-04-01T02:05:42.865Z,6.04
2019-04-01T02:06:42.859Z,5.93
2019-04-01T02:07:42.850Z,5.99
2019-04-01T02:08:42.837Z,6.02
2019-04-01T02:09:42.826Z,5.97
2019-04-01T02:10:42.817Z,6.04
2019-04-01T02:11:42.802Z,5.97
2019-04-01T02:12:42.796Z,5.94
2019-04-01T02:13:42.783Z,5.91
2019-04-01T02:14:42.773Z,5.94
2019-04-01T02:15:42.761Z,5.90
2019-04-01T02:16:42.752Z,5.93
2019-04-01T02:17:42.738Z,5.90
2019-04-01T02:18:42.727Z,5.79
2019-04-01T02:19:42.718Z,5.87
2019-04-01T02:20:42.709Z,5.89
2019-04-01T02:21:42.698Z,5.82
2019-04-01T02:22:42.703Z,5.87
2019-04-01T02:23:42.675Z,5.86
2019-04-01T02:24:42.673Z,5.83
2019-04-01T02:25:42.662Z,5.83
2019-04-01T02:26:42.648Z,5.73
2019-04-01T02:27:42.634Z,5.72
2019-04-01T02:28:42.622Z,5.73
2019-04-01T02:29:42.610Z,5.68
2019-04-01T02:30:42.617Z,5.69
2019-04-01T02:31:42.624Z,5.68
2019-04-01T02:32:42.585Z,5.59
2019-04-01T02:33:42.573Z,5.62
2019-04-01T02:34:42.562Z,5.61
2019-04-01T02:35:42.546Z,5.66
2019-04-01T02:36:42.544Z,5.68
2019-04-01T02:37:42.527Z,5.65
2019-04-01T02:38:42.513Z,5.65
2019-04-01T02:39:42.503Z,5.66
2019-04-01T02:40:42.501Z,5.57
2019-04-01T02:41:42.484Z,5.61
2019-04-01T02:42:42.476Z,5.62
2019-04-01T02:43:42.465Z,5.59
2019-04-01T02:44:42.450Z,5.69
2019-04-01T02:45:42.436Z,5.59
2019-04-01T02:46:42.431Z,5.54
2019-04-01T02:47:42.425Z,5.62
2019-04-01T02:48:42.405Z,5.59
2019-04-01T02:49:42.398Z,5.53
2019-04-01T02:50:42.385Z,5.53
2019-04-01T02:51:42.379Z,5.57
2019-04-01T02:52:42.364Z,5.57
2019-04-01T02:53:42.354Z,5.53
2019-04-01T02:54:42.348Z,5.64
2019-04-01T02:55:42.331Z,5.56
2019-04-01T02:56:42.321Z,5.56
2019-04-01T02:57:42.307Z,5.66
2019-04-01T02:58:42.295Z,5.56
2019-04-01T02:59:42.285Z,5.57
2019-04-01T03:00:42.273Z,5.62
2019-04-01T03:01:42.270Z,5.68
2019-04-01T03:02:42.256Z,5.59
2019-04-01T03:03:42.252Z,5.64
2019-04-01T03:04:42.231Z,5.66
2019-04-01T03:05:42.218Z,5.66
2019-04-01T03:06:42.208Z,5.56
2019-04-01T03:07:42.198Z,5.65
2019-04-01T03:08:42.195Z,5.69
2019-04-01T03:09:42.181Z,5.66
2019-04-01T03:10:42.167Z,5.61
2019-04-01T03:11:42.151Z,5.61
2019-04-01T03:12:42.142Z,5.54
2019-04-01T03:13:42.137Z,5.57
2019-04-01T03:14:42.124Z,5.61
2019-04-01T03:15:42.111Z,5.53
2019-04-01T03:16:42.100Z,5.51
2019-04-01T03:17:42.088Z,5.59
2019-04-01T03:18:42.082Z,5.56
2019-04-01T03:19:42.066Z,5.62
2019-04-01T03:20:42.053Z,5.61
2019-04-01T03:21:42.045Z,5.59
2019-04-01T03:22:42.030Z,5.61
2019-04-01T03:23:42.019Z,5.59
2019-04-01T03:24:42.012Z,5.64
2019-04-01T03:25:41.998Z,5.59
2019-04-01T03:26:41.996Z,5.56
2019-04-01T03:27:41.980Z,5.61
2019-04-01T03:28:41.967Z,5.57
2019-04-01T03:29:41.952Z,5.68
2019-04-01T03:30:41.946Z,5.62
2019-04-01T03:31:41.941Z,5.57
2019-04-01T03:32:45.248Z,5.57
2019-04-01T03:33:41.923Z,5.59
2019-04-01T03:34:41.903Z,5.64
2019-04-01T03:35:41.887Z,5.53
2019-04-01T03:36:41.881Z,5.51
2019-04-01T03:37:41.888Z,5.53
2019-04-01T03:38:41.860Z,5.57
2019-04-01T03:39:41.846Z,5.50
2019-04-01T03:40:41.836Z,5.47
2019-04-01T03:41:41.825Z,5.59
2019-04-01T03:42:41.813Z,5.56
2019-04-01T03:43:41.811Z,5.56
2019-04-01T03:44:41.793Z,5.53
2019-04-01T03:45:41.782Z,5.56
2019-04-01T03:46:41.769Z,5.57
2019-04-01T03:47:41.773Z,5.44
2019-04-01T03:48:41.751Z,5.53
2019-04-01T03:49:41.738Z,5.41
2019-04-01T03:50:41.731Z,5.47
2019-04-01T03:51:41.719Z,5.39
2019-04-01T03:52:41.710Z,5.43
2019-04-01T03:53:41.697Z,5.38
2019-04-01T03:54:41.685Z,5.35
2019-04-01T03:55:41.676Z,5.32
2019-04-01T03:56:41.664Z,5.41
2019-04-01T03:57:41.654Z,5.35
2019-04-01T03:58:41.658Z,5.38
2019-04-01T03:59:41.748Z,5.38
2019-04-01T04:00:41.623Z,5.32
2019-04-01T04:01:41.612Z,5.32
2019-04-01T04:02:41.601Z,5.30
2019-04-01T04:03:41.595Z,5.30
2019-04-01T04:04:41.580Z,5.33
2019-04-01T04:05:41.566Z,5.30
2019-04-01T04:06:41.554Z,5.33
2019-04-01T04:07:41.551Z,5.25
2019-04-01T04:08:41.539Z,5.26
2019-04-01T04:09:41.527Z,5.23
2019-04-01T04:10:41.516Z,5.26
2019-04-01T04:11:41.496Z,5.21
2019-04-01T04:12:41.491Z,5.23
2019-04-01T04:13:41.483Z,5.28
2019-04-01T04:14:41.469Z,5.23
2019-04-01T04:15:41.458Z,5.32
2019-04-01T04:16:41.453Z,5.28
2019-04-01T04:17:41.435Z,5.23
2019-04-01T04:18:41.425Z,5.21
2019-04-01T04:19:41.425Z,5.21
2019-04-01T04:20:41.404Z,5.15
2019-04-01T04:21:41.389Z,5.12
2019-04-01T04:22:41.381Z,5.18
2019-04-01T04:23:41.368Z,5.12
2019-04-01T04:24:41.374Z,5.17
2019-04-01T04:25:41.353Z,5.08
2019-04-01T04:26:41.334Z,5.04
2019-04-01T04:27:41.330Z,5.02
2019-04-01T04:28:41.319Z,5.05
2019-04-01T04:29:41.308Z,5.00
2019-04-01T04:30:41.296Z,5.04
2019-04-01T04:31:41.361Z,5.04
2019-04-01T04:32:41.274Z,4.92
2019-04-01T04:33:41.258Z,4.96
2019-04-01T04:34:41.249Z,4.92
2019-04-01T04:35:41.239Z,5.00
2019-04-01T04:36:41.229Z,5.08
2019-04-01T04:37:41.215Z,5.05
2019-04-01T04:38:41.209Z,5.05
2019-04-01T04:39:41.197Z,4.93
2019-04-01T04:40:41.410Z,5.04
2019-04-01T04:41:41.217Z,4.96
2019-04-01T04:42:41.160Z,4.92
2019-04-01T04:43:41.150Z,4.94
2019-04-01T04:44:41.138Z,5.05
2019-04-01T04:45:41.125Z,5.04
2019-04-01T04:46:41.115Z,5.02
2019-04-01T04:47:41.104Z,4.94
2019-04-01T04:48:41.094Z,5.04
2019-04-01T04:49:41.081Z,4.92
2019-04-01T04:50:41.076Z,4.89
2019-04-01T04:51:41.060Z,4.94
2019-04-01T04:52:41.049Z,4.94
2019-04-01T04:53:41.034Z,4.90
2019-04-01T04:54:41.028Z,4.93
2019-04-01T04:55:41.017Z,4.90
2019-04-01T04:56:41.005Z,4.84
2019-04-01T04:57:40.994Z,4.93
2019-04-01T04:58:40.983Z,4.75
2019-04-01T04:59:40.969Z,4.73
2019-04-01T05:00:40.960Z,4.75
2019-04-01T05:01:40.950Z,4.70
2019-04-01T05:02:40.934Z,4.74
2019-04-01T05:03:40.924Z,4.63
2019-04-01T05:04:40.916Z,4.74
2019-04-01T05:05:40.907Z,4.66
2019-04-01T05:06:40.897Z,4.67
2019-04-01T05:07:40.883Z,4.73
2019-04-01T05:08:40.871Z,4.78
2019-04-01T05:09:40.858Z,4.77
2019-04-01T05:10:40.853Z,4.80
2019-04-01T05:11:40.838Z,4.73
2019-04-01T05:12:40.823Z,4.75
2019-04-01T05:13:40.837Z,4.86
2019-04-01T05:14:40.805Z,4.89
2019-04-01T05:15:40.792Z,4.86
2019-04-01T05:16:40.784Z,4.97
2019-04-01T05:17:40.768Z,4.93
2019-04-01T05:18:40.764Z,4.92
2019-04-01T05:19:40.848Z,4.94
2019-04-01T05:20:40.736Z,4.93
2019-04-01T05:21:40.720Z,4.93
2019-04-01T05:22:40.713Z,4.99
2019-04-01T05:23:40.701Z,4.97
2019-04-01T05:24:40.693Z,5.04
2019-04-01T05:25:40.680Z,5.04
2019-04-01T05:26:40.669Z,5.12
2019-04-01T05:27:40.667Z,5.08
2019-04-01T05:28:40.650Z,5.04
2019-04-01T05:29:40.634Z,5.15
2019-04-01T05:30:40.625Z,5.10
2019-04-01T05:31:40.614Z,5.10
2019-04-01T05:32:40.604Z,5.12
2019-04-01T05:33:54.606Z,5.23
2019-04-01T05:34:40.581Z,5.30
2019-04-01T05:35:40.571Z,5.28
2019-04-01T05:36:40.560Z,5.38
2019-04-01T05:37:40.549Z,5.41
2019-04-01T05:38:40.537Z,5.36
2019-04-01T05:39:40.528Z,5.47
2019-04-01T05:40:40.515Z,5.36
2019-04-01T05:41:40.502Z,5.47
2019-04-01T05:42:40.495Z,5.43
2019-04-01T05:43:40.482Z,5.36
2019-04-01T05:44:40.477Z,5.48
2019-04-01T05:45:40.459Z,5.43
2019-04-01T05:46:40.454Z,5.53
2019-04-01T05:47:40.434Z,5.59
2019-04-01T05:48:40.430Z,5.57
2019-04-01T05:49:40.415Z,5.53
2019-04-01T05:50:40.407Z,5.65
2019-04-01T05:51:40.395Z,5.56
2019-04-01T05:52:40.384Z,5.48
2019-04-01T05:53:40.371Z,5.46
2019-04-01T05:54:40.364Z,5.46
2019-04-01T05:55:40.352Z,5.38
2019-04-01T05:56:40.345Z,5.41
2019-04-01T05:57:40.334Z,5.39
2019-04-01T05:58:40.343Z,5.46
2019-04-01T05:59:40.307Z,5.47
2019-04-01T06:00:40.297Z,5.43
2019-04-01T06:01:40.289Z,5.59
2019-04-01T06:02:40.279Z,5.57
2019-04-01T06:03:40.265Z,5.46
2019-04-01T06:04:40.259Z,5.46
2019-04-01T06:05:40.255Z,5.41
2019-04-01T06:06:40.233Z,5.39
2019-04-01T06:07:40.222Z,5.23
2019-04-01T06:08:40.211Z,5.23
2019-04-01T06:09:40.223Z,5.15
2019-04-01T06:10:40.194Z,5.14
2019-04-01T06:11:40.177Z,5.18
2019-04-01T06:12:40.168Z,5.15
2019-04-01T06:13:40.164Z,5.15
2019-04-01T06:14:40.148Z,5.17
2019-04-01T06:15:40.135Z,5.12
2019-04-01T06:16:40.129Z,5.21
2019-04-01T06:17:40.111Z,5.20
2019-04-01T06:18:40.105Z,5.28
2019-04-01T06:19:40.090Z,5.32
2019-04-01T06:20:40.080Z,5.28
2019-04-01T06:21:40.073Z,5.21
2019-04-01T06:22:40.054Z,5.30
2019-04-01T06:23:40.046Z,5.28
2019-04-01T06:24:40.036Z,5.20
2019-04-01T06:25:40.025Z,5.14
2019-04-01T06:26:40.013Z,5.10
2019-04-01T06:27:40.004Z,5.14
2019-04-01T06:28:40.001Z,5.07
2019-04-01T06:29:39.977Z,5.05
2019-04-01T06:30:39.970Z,5.04
2019-04-01T06:31:39.960Z,5.12
2019-04-01T06:32:39.951Z,5.14
2019-04-01T06:33:39.936Z,5.15
2019-04-01T06:34:52.231Z,5.15
2019-04-01T06:35:39.914Z,5.10
2019-04-01T06:36:39.897Z,5.10
2019-04-01T06:37:39.910Z,5.12
2019-04-01T06:38:39.876Z,5.18
2019-04-01T06:39:39.864Z,5.12
2019-04-01T06:40:39.857Z,5.15
2019-04-01T06:41:39.839Z,5.26
2019-04-01T06:42:39.834Z,5.30
2019-04-01T06:43:39.823Z,5.35
2019-04-01T06:44:39.810Z,5.43
2019-04-01T06:45:39.797Z,5.33
2019-04-01T06:46:39.788Z,5.43
2019-04-01T06:47:39.784Z,5.32
2019-04-01T06:48:39.769Z,5.30
2019-04-01T06:49:39.753Z,5.47
2019-04-01T06:50:39.744Z,5.44
2019-04-01T06:51:39.732Z,5.44
2019-04-01T06:52:39.721Z,5.57
2019-04-01T06:53:39.712Z,5.50
2019-04-01T06:54:39.699Z,5.57
2019-04-01T06:55:39.689Z,5.57
2019-04-01T06:56:39.675Z,5.59
2019-04-01T06:57:39.664Z,5.72
2019-04-01T06:58:39.654Z,5.75
2019-04-01T06:59:39.647Z,5.73
2019-04-01T07:00:39.631Z,5.69
2019-04-01T07:01:39.622Z,5.79
2019-04-01T07:02:39.619Z,5.76
2019-04-01T07:03:39.600Z,5.79
2019-04-01T07:04:39.590Z,5.87
2019-04-01T07:05:39.577Z,5.82
2019-04-01T07:06:39.658Z,5.84
2019-04-01T07:07:39.555Z,5.84
2019-04-01T07:08:39.546Z,5.93
2019-04-01T07:09:39.533Z,5.90
2019-04-01T07:10:39.527Z,5.90
2019-04-01T07:11:39.652Z,5.94
2019-04-01T07:12:39.504Z,5.97
2019-04-01T07:13:40.190Z,6.09
2019-04-01T07:14:39.480Z,6.04
2019-04-01T07:15:39.469Z,6.01
2019-04-01T07:16:40.182Z,6.12
2019-04-01T07:17:39.448Z,6.12
2019-04-01T07:18:39.436Z,6.12
2019-04-01T07:19:39.424Z,6.20
2019-04-01T07:20:39.415Z,6.19
2019-04-01T07:21:39.410Z,6.17
2019-04-01T07:22:39.396Z,6.14
2019-04-01T07:23:39.382Z,6.16
2019-04-01T07:24:39.371Z,6.16
2019-04-01T07:25:39.359Z,6.17
2019-04-01T07:26:39.348Z,6.14
2019-04-01T07:27:39.341Z,6.20
2019-04-01T07:28:39.363Z,6.24
2019-04-01T07:29:39.320Z,6.17
2019-04-01T07:30:41.777Z,6.30
2019-04-01T07:31:39.300Z,6.27
2019-04-01T07:32:39.286Z,6.36
2019-04-01T07:33:39.280Z,6.41
2019-04-01T07:34:39.263Z,6.39
2019-04-01T07:35:39.251Z,6.46
2019-04-01T07:36:39.247Z,6.52
2019-04-01T07:37:39.244Z,6.59
2019-04-01T07:38:39.223Z,6.62
2019-04-01T07:39:39.217Z,6.59
2019-04-01T07:40:39.204Z,6.70
2019-04-01T07:41:39.343Z,6.72
2019-04-01T07:42:39.180Z,6.67
2019-04-01T07:43:39.171Z,6.78
2019-04-01T07:44:39.160Z,6.87
2019-04-01T07:45:39.150Z,6.82
2019-04-01T07:46:39.140Z,6.85
2019-04-01T07:47:39.127Z,6.88
2019-04-01T07:48:39.119Z,6.85
2019-04-01T07:49:39.211Z,6.99
2019-04-01T07:50:39.104Z,6.99
2019-04-01T07:51:39.089Z,7.03
2019-04-01T07:52:39.084Z,7.06
2019-04-01T07:53:39.075Z,7.05
2019-04-01T07:54:39.055Z,7.14
2019-04-01T07:55:39.076Z,7.20
2019-04-01T07:56:39.038Z,7.17
2019-04-01T07:57:39.035Z,7.23
2019-04-01T07:58:39.017Z,7.35
2019-04-01T07:59:39.034Z,7.33
2019-04-01T08:00:38.996Z,7.35
2019-04-01T08:01:38.985Z,7.45
2019-04-01T08:02:38.975Z,7.53
2019-04-01T08:03:41.819Z,7.45
2019-04-01T08:04:38.952Z,7.53
2019-04-01T08:05:38.946Z,7.48
2019-04-01T08:06:38.938Z,7.58
2019-04-01T08:07:38.925Z,7.66
2019-04-01T08:08:38.915Z,7.69
2019-04-01T08:09:38.908Z,7.76
2019-04-01T08:10:38.895Z,7.85
2019-04-01T08:11:38.885Z,7.93
2019-04-01T08:12:38.874Z,7.95
2019-04-01T08:13:38.866Z,7.95
2019-04-01T08:14:38.863Z,8.03
2019-04-01T08:15:38.860Z,8.08
2019-04-01T08:16:38.850Z,8.09
2019-04-01T08:17:38.833Z,8.16
2019-04-01T08:18:38.818Z,8.26
2019-04-01T08:19:38.809Z,8.34
2019-04-01T08:20:38.799Z,8.36
2019-04-01T08:21:38.790Z,8.34
2019-04-01T08:22:38.831Z,8.36
2019-04-01T08:23:38.773Z,8.44
2019-04-01T08:24:38.793Z,8.46
2019-04-01T08:25:38.753Z,8.38
2019-04-01T08:26:38.743Z,8.34
2019-04-01T08:27:38.737Z,8.34
2019-04-01T08:28:38.725Z,8.45
2019-04-01T08:29:38.717Z,8.55
2019-04-01T08:30:38.711Z,8.49
2019-04-01T08:31:38.701Z,8.58
2019-04-01T08:32:38.691Z,8.55
2019-04-01T08:33:38.675Z,8.60
2019-04-01T08:34:38.678Z,8.56
2019-04-01T08:35:38.658Z,8.60
2019-04-01T08:36:38.649Z,8.71
2019-04-01T08:37:40.536Z,8.69
2019-04-01T08:38:38.629Z,8.69
2019-04-01T08:39:38.633Z,8.82
2019-04-01T08:40:38.609Z,8.71
2019-04-01T08:41:38.603Z,8.79
2019-04-01T08:42:38.594Z,8.81
2019-04-01T08:43:38.584Z,8.76
2019-04-01T08:44:38.577Z,8.85
2019-04-01T08:45:38.567Z,8.87
2019-04-01T08:46:38.558Z,8.94
2019-04-01T08:47:38.547Z,8.91
2019-04-01T08:48:38.549Z,9.03
2019-04-01T08:49:38.531Z,9.00
2019-04-01T08:50:38.534Z,9.11
2019-04-01T08:51:38.511Z,9.11
2019-04-01T08:52:38.503Z,9.18
2019-04-01T08:53:38.494Z,9.18
2019-04-01T08:54:38.486Z,9.19
2019-04-01T08:55:38.476Z,9.23
2019-04-01T08:56:38.489Z,9.23
2019-04-01T08:57:38.461Z,9.37
2019-04-01T08:58:38.449Z,9.47
2019-04-01T08:59:38.440Z,9.44
2019-04-01T09:00:38.432Z,9.54
2019-04-01T09:01:38.422Z,9.59
2019-04-01T09:02:38.427Z,9.68
2019-04-01T09:03:38.406Z,9.69
2019-04-01T09:04:38.418Z,9.72
2019-04-01T09:05:38.405Z,9.72
2019-04-01T09:06:38.398Z,9.76
2019-04-01T09:07:38.373Z,9.79
2019-04-01T09:08:38.365Z,9.72
2019-04-01T09:09:38.354Z,9.80
2019-04-01T09:10:38.346Z,9.82
2019-04-01T09:11:38.809Z,9.87
2019-04-01T09:12:38.329Z,9.89
2019-04-01T09:13:38.316Z,9.82
2019-04-01T09:14:38.311Z,9.86
2019-04-01T09:15:38.302Z,9.97
2019-04-01T09:16:38.294Z,9.97
2019-04-01T09:17:40.320Z,9.98
2019-04-01T09:18:38.276Z,9.99
2019-04-01T09:19:38.276Z,9.92
2019-04-01T09:20:38.266Z,10.01
2019-04-01T09:21:38.252Z,10.05
2019-04-01T09:22:38.248Z,10.09
2019-04-01T09:23:38.242Z,10.02
2019-04-01T09:24:38.229Z,10.07
2019-04-01T09:25:38.226Z,10.16
2019-04-01T09:26:38.213Z,10.19
2019-04-01T09:27:38.202Z,10.17
2019-04-01T09:28:38.197Z,10.23
2019-04-01T09:29:38.187Z,10.26
2019-04-01T09:30:38.180Z,10.25
2019-04-01T09:31:38.174Z,10.22
2019-04-01T09:32:38.163Z,10.20
2019-04-01T09:33:38.154Z,10.26
2019-04-01T09:34:38.143Z,10.31
2019-04-01T09:35:40.912Z,10.34
2019-04-01T09:36:38.132Z,10.33
2019-04-01T09:37:38.133Z,10.41
2019-04-01T09:38:38.173Z,10.38
2019-04-01T09:39:38.124Z,10.34
2019-04-01T09:40:38.100Z,10.34
2019-04-01T09:41:38.090Z,10.20
2019-04-01T09:42:38.083Z,10.28
2019-04-01T09:43:38.083Z,10.13
2019-04-01T09:44:38.072Z,10.26
2019-04-01T09:45:38.056Z,10.25
2019-04-01T09:46:38.077Z,10.26
2019-04-01T09:47:38.044Z,10.30
2019-04-01T09:48:38.055Z,10.35
2019-04-01T09:49:38.027Z,10.40
2019-04-01T09:50:38.019Z,10.46
2019-04-01T09:51:48.549Z,10.51
2019-04-01T09:52:38.004Z,10.53
2019-04-01T09:53:37.996Z,10.63
2019-04-01T09:54:37.989Z,10.69
2019-04-01T09:55:37.978Z,10.63
2019-04-01T09:56:37.973Z,10.67
2019-04-01T09:57:38.023Z,10.64
2019-04-01T09:58:37.957Z,10.61
2019-04-01T09:59:37.948Z,10.67
2019-04-01T10:00:37.939Z,10.76
2019-04-01T10:01:37.933Z,10.69
2019-04-01T10:02:37.926Z,10.78
2019-04-01T10:03:37.915Z,10.81
2019-04-01T10:04:37.909Z,10.78
2019-04-01T10:05:37.903Z,10.71
2019-04-01T10:06:37.891Z,10.69
2019-04-01T10:07:37.934Z,10.71
2019-04-01T10:08:42.442Z,10.74
2019-04-01T10:09:37.871Z,10.71
2019-04-01T10:10:37.864Z,10.76
2019-04-01T10:11:37.853Z,10.72
2019-04-01T10:12:37.849Z,10.75
2019-04-01T10:13:37.841Z,10.76
2019-04-01T10:14:37.830Z,10.75
2019-04-01T10:15:37.827Z,10.76
2019-04-01T10:16:37.817Z,10.71
2019-04-01T10:17:37.822Z,10.72
2019-04-01T10:18:37.803Z,10.75
2019-04-01T10:19:37.791Z,10.69
2019-04-01T10:20:37.786Z,10.71
2019-04-01T10:21:37.778Z,10.86
2019-04-01T10:22:37.769Z,10.81
2019-04-01T10:23:37.765Z,10.79
2019-04-01T10:24:37.757Z,10.82
2019-04-01T10:25:37.747Z,10.92
2019-04-01T10:26:37.741Z,10.86
2019-04-01T10:27:37.732Z,10.87
2019-04-01T10:28:37.734Z,10.86
2019-04-01T10:29:37.717Z,10.90
2019-04-01T10:30:37.708Z,10.93
2019-04-01T10:31:37.697Z,10.90
2019-04-01T10:32:37.812Z,10.90
2019-04-01T10:33:37.687Z,11.02
2019-04-01T10:34:37.680Z,11.11
2019-04-01T10:35:37.673Z,11.15
2019-04-01T10:36:37.667Z,11.18
2019-04-01T10:37:37.659Z,11.27
2019-04-01T10:38:37.660Z,11.19
2019-04-01T10:39:37.645Z,11.32
2019-04-01T10:40:37.634Z,11.26
2019-04-01T10:41:37.696Z,11.30
2019-04-01T10:42:37.621Z,11.26
2019-04-01T10:43:37.614Z,11.27
2019-04-01T10:44:37.608Z,11.25
2019-04-01T10:45:37.601Z,11.32
2019-04-01T10:46:40.557Z,11.30
2019-04-01T10:47:37.675Z,11.29
2019-04-01T10:48:37.622Z,11.36
2019-04-01T10:49:37.630Z,11.47
2019-04-01T10:50:37.652Z,11.45
2019-04-01T10:51:37.616Z,11.48
2019-04-01T10:52:37.650Z,11.50
2019-04-01T10:53:37.557Z,11.48
2019-04-01T10:54:37.549Z,11.43
2019-04-01T10:55:37.547Z,11.47
2019-04-01T10:56:37.526Z,11.48
2019-04-01T10:57:37.511Z,11.41
2019-04-01T10:58:37.539Z,11.51
2019-04-01T10:59:37.635Z,11.57
2019-04-01T11:00:37.617Z,11.60
2019-04-01T11:01:37.528Z,11.57
2019-04-01T11:02:37.487Z,11.57
2019-04-01T11:03:37.665Z,11.60
2019-04-01T11:04:37.508Z,11.57
2019-04-01T11:05:37.468Z,11.51
2019-04-01T11:06:37.542Z,11.57
2019-04-01T11:07:37.531Z,11.60
2019-04-01T11:08:37.537Z,11.55
2019-04-01T11:09:38.781Z,11.59
2019-04-01T11:10:37.417Z,11.55
2019-04-01T11:11:37.511Z,11.57
2019-04-01T11:12:37.485Z,11.51
2019-04-01T11:13:37.964Z,11.51
2019-04-01T11:14:37.394Z,11.54
2019-04-01T11:15:37.398Z,11.54
2019-04-01T11:16:37.384Z,11.60
2019-04-01T11:17:37.392Z,11.62
2019-04-01T11:18:37.373Z,11.65
2019-04-01T11:19:37.356Z,11.70
2019-04-01T11:20:37.593Z,11.70
2019-04-01T11:21:37.341Z,11.72
2019-04-01T11:22:37.339Z,11.83
2019-04-01T11:23:37.483Z,11.86
2019-04-01T11:24:37.333Z,11.87
2019-04-01T11:25:37.318Z,11.91
2019-04-01T11:26:37.318Z,11.86
2019-04-01T11:27:37.315Z,11.83
2019-04-01T11:28:37.299Z,11.86
2019-04-01T11:29:37.289Z,11.88
2019-04-01T11:30:37.545Z,11.86
2019-04-01T11:31:37.329Z,11.97
2019-04-01T11:32:37.325Z,12.03
2019-04-01T11:33:37.272Z,12.04
2019-04-01T11:34:37.266Z,12.04
2019-04-01T11:35:37.288Z,12.13
2019-04-01T11:36:37.311Z,12.06
2019-04-01T11:37:37.267Z,12.06
2019-04-01T11:38:37.253Z,12.06
2019-04-01T11:39:37.228Z,12.13
2019-04-01T11:40:38.927Z,12.13
2019-04-01T11:41:37.248Z,12.06
2019-04-01T11:42:40.497Z,12.10
2019-04-01T11:43:37.206Z,12.13
2019-04-01T11:44:37.218Z,12.12
2019-04-01T11:45:37.225Z,12.09
2019-04-01T11:46:37.193Z,12.15
2019-04-01T11:47:37.248Z,12.21
2019-04-01T11:48:37.300Z,12.27
2019-04-01T11:49:37.219Z,12.21
2019-04-01T11:50:37.215Z,12.24
2019-04-01T11:51:40.019Z,12.29
2019-04-01T11:52:38.022Z,12.36
2019-04-01T11:53:37.433Z,12.28
2019-04-01T11:54:37.124Z,12.27
2019-04-01T11:55:37.121Z,12.18
2019-04-01T11:56:37.115Z,12.13
2019-04-01T11:57:37.109Z,12.13
2019-04-01T11:58:38.442Z,12.09
2019-04-01T11:59:37.915Z,12.07
2019-04-01T12:00:37.088Z,12.12
2019-04-01T12:01:37.086Z,12.20
2019-04-01T12:02:37.073Z,12.15
2019-04-01T12:03:37.068Z,12.32
2019-04-01T12:04:37.066Z,12.36
2019-04-01T12:05:37.050Z,12.29
2019-04-01T12:06:37.068Z,12.40
2019-04-01T12:07:37.043Z,12.32
2019-04-01T12:08:37.040Z,12.29
2019-04-01T12:09:37.029Z,12.20
2019-04-01T12:10:37.024Z,12.25
2019-04-01T12:11:37.026Z,12.35
2019-04-01T12:12:37.033Z,12.36
2019-04-01T12:13:37.001Z,12.42
2019-04-01T12:14:37.006Z,12.42
2019-04-01T12:15:36.991Z,12.40
2019-04-01T12:16:37.007Z,12.40
2019-04-01T12:17:36.996Z,12.32
2019-04-01T12:18:36.989Z,12.35
2019-04-01T12:19:36.965Z,12.18
2019-04-01T12:20:37.521Z,12.21
2019-04-01T12:21:41.258Z,12.22
2019-04-01T12:22:36.961Z,12.42
2019-04-01T12:23:36.971Z,12.32
2019-04-01T12:24:36.973Z,12.32
2019-04-01T12:25:36.926Z,12.43
2019-04-01T12:26:36.928Z,12.47
2019-04-01T12:27:36.922Z,12.42
2019-04-01T12:28:36.909Z,12.60
2019-04-01T12:29:36.919Z,12.67
2019-04-01T12:30:36.899Z,12.54
2019-04-01T12:31:36.885Z,12.60
2019-04-01T12:32:36.884Z,12.43
2019-04-01T12:33:36.877Z,12.47
2019-04-01T12:34:36.870Z,12.42
2019-04-01T12:35:36.866Z,12.46
2019-04-01T12:36:36.860Z,12.49
2019-04-01T12:37:36.871Z,12.49
2019-04-01T12:38:36.848Z,12.49
2019-04-01T12:39:36.841Z,12.57
2019-04-01T12:40:36.838Z,12.61
2019-04-01T12:41:36.829Z,12.61
2019-04-01T12:42:36.820Z,12.62
2019-04-01T12:43:36.815Z,12.61
2019-04-01T12:44:36.804Z,12.62
2019-04-01T12:45:36.803Z,12.57
2019-04-01T12:46:36.809Z,12.57
2019-04-01T12:47:36.792Z,12.47
2019-04-01T12:48:36.797Z,12.46
2019-04-01T12:49:36.789Z,12.50
2019-04-01T12:50:36.770Z,12.60
2019-04-01T12:51:36.767Z,12.65
2019-04-01T12:52:36.761Z,12.58
2019-04-01T12:53:36.753Z,12.62
2019-04-01T12:54:36.748Z,12.70
2019-04-01T12:55:36.740Z,12.82
2019-04-01T12:56:36.735Z,12.80
2019-04-01T12:57:36.727Z,12.86
2019-04-01T12:58:36.721Z,12.86
2019-04-01T12:59:36.717Z,12.86
2019-04-01T13:00:36.707Z,12.91
2019-04-01T13:01:36.708Z,12.94
2019-04-01T13:02:36.697Z,12.90
2019-04-01T13:03:36.694Z,12.87
2019-04-01T13:04:36.692Z,12.83
2019-04-01T13:05:36.679Z,12.82
2019-04-01T13:06:36.677Z,12.80
2019-04-01T13:07:36.670Z,12.86
2019-04-01T13:08:36.664Z,12.87
2019-04-01T13:09:36.655Z,12.98
2019-04-01T13:10:36.652Z,12.94